No1 Tokuyama — JK5318 — position and weather

sailwx.info

Track history (hours):
 
Tides and Currents Weather Stations Pressure Air Temp Water Temp Dewpoint Dewpoint Depression Visibility Wind Speed Wind Dir Waves Ship Positions

No1 Tokuyama

Last reported at 2017-Feb-25 07:11 UTC. Time now 2017-Feb-26 03:23 UTC.
Position N 33°19' E 132°00'.

Length 110 m; draft 5.4 m.

Type: Cargo ship. MMSI: 431400487.

Date/timePositionNaut miles runAvg speedWind from/ knotsBaromVisibWave heightAir tempDewpointWater temp
2017-Feb-25 07:11N 33°19' E 132°00'1113.4
2017-Feb-25 06:22N 33°10' E 132°08'38511.7
2017-Feb-23 21:33N 35°00' E 139°33'1413.6
2017-Feb-23 20:33N 35°10' E 139°45'1211.9
2017-Feb-23 19:33N 35°22' E 139°42'1312.7
2017-Feb-23 18:33N 35°30' E 139°54'4 4.0
2017-Feb-23 17:32N 35°27' E 139°58'0 0.0
2017-Feb-23 16:32N 35°27' E 139°58'0 0.0
2017-Feb-23 15:32N 35°27' E 139°58'0 0.0
2017-Feb-23 14:32N 35°27' E 139°58'0 0.0
2017-Feb-23 13:32N 35°27' E 139°58'0 0.0
2017-Feb-23 12:32N 35°27' E 139°58'0 0.0
2017-Feb-23 11:32N 35°27' E 139°58'0 0.0
2017-Feb-23 10:32N 35°27' E 139°58'0 0.0
2017-Feb-23 09:29N 35°27' E 139°58'0 0.0
2017-Feb-23 08:29N 35°27' E 139°58'0 0.0
2017-Feb-23 07:23N 35°27' E 139°58'0 0.0
2017-Feb-23 04:20N 35°27' E 139°58'0 0.0
2017-Feb-22 23:29N 35°27' E 139°58'0 0.0
2017-Feb-22 22:29N 35°27' E 139°58'0 0.0
2017-Feb-22 21:32N 35°27' E 139°58'0 0.0
2017-Feb-22 20:23N 35°27' E 139°58'0 0.0
2017-Feb-22 19:26N 35°27' E 139°58'0 0.0
2017-Feb-22 18:29N 35°27' E 139°58'0 0.0
2017-Feb-22 17:32N 35°27' E 139°58'0 0.0
2017-Feb-22 16:32N 35°27' E 139°58'0 0.0
2017-Feb-22 15:32N 35°27' E 139°58'0 0.0
2017-Feb-22 14:11N 35°27' E 139°58'0 0.0
2017-Feb-22 13:14N 35°27' E 139°58'0 0.0
2017-Feb-22 12:29N 35°27' E 139°58'0 0.0
2017-Feb-22 11:29N 35°27' E 139°58'0 0.0
2017-Feb-22 10:32N 35°27' E 139°58'0 0.0
2017-Feb-22 09:32N 35°27' E 139°58'0 0.0
2017-Feb-22 08:32N 35°27' E 139°58'0 0.0
2017-Feb-22 07:29N 35°27' E 139°58'0 0.0
2017-Feb-22 06:32N 35°27' E 139°58'0 0.0
2017-Feb-22 05:32N 35°27' E 139°58'0 0.0
2017-Feb-22 04:32N 35°27' E 139°58'5 4.8
2017-Feb-22 03:33N 35°29' E 139°52'10 9.5
2017-Feb-22 02:33N 35°26' E 139°41'0 0.0
2017-Feb-22 01:33N 35°26' E 139°41'0 0.0
2017-Feb-22 00:33N 35°26' E 139°41'0 0.0
2017-Feb-21 23:33N 35°26' E 139°41'0 0.0
2017-Feb-21 22:33N 35°26' E 139°41'6 6.0
2017-Feb-21 21:33N 35°20' E 139°43'1010.1
2017-Feb-21 20:33N 35°10' E 139°46'10 9.9
2017-Feb-21 19:33N 35°02' E 139°40'1211.1
2017-Feb-21 18:31N 34°53' E 139°31'23010.5
2017-Feb-20 20:32N 33°59' E 134°60'1212.5
2017-Feb-20 19:33N 34°12' E 134°59'1111.4
2017-Feb-20 18:33N 34°23' E 135°01'1212.0
2017-Feb-20 17:33N 34°29' E 135°14'5 3.5
2017-Feb-20 16:10N 34°30' E 135°19'0 0.1
2017-Feb-20 15:28N 34°30' E 135°19'0 0.0
2017-Feb-20 14:28N 34°30' E 135°19'0 0.0
2017-Feb-20 13:28N 34°30' E 135°19'0 0.0
2017-Feb-20 12:28N 34°30' E 135°19'0 0.1
2017-Feb-20 11:04N 34°30' E 135°19'0 0.0
2017-Feb-20 10:28N 34°30' E 135°19'0 0.0
2017-Feb-20 09:28N 34°30' E 135°19'0 0.0
2017-Feb-20 07:04N 34°30' E 135°19'0 0.0
2017-Feb-20 06:22N 34°30' E 135°19'0 0.1
2017-Feb-20 05:22N 34°30' E 135°19'0 0.1
2017-Feb-20 04:28N 34°30' E 135°19'0 0.0
2017-Feb-20 03:28N 34°30' E 135°19'0 0.0
2017-Feb-20 01:16N 34°30' E 135°19'1 1.9
2017-Feb-20 00:33N 34°30' E 135°18'1111.0
2017-Feb-19 23:32N 34°34' E 135°05'11911.5
2017-Feb-19 13:12N 34°01' E 132°46'812.0
2017-Feb-19 12:33N 33°55' E 132°40'1211.9
2017-Feb-19 11:33N 33°51' E 132°27'2611.2
2017-Feb-19 09:12N 33°50' E 131°55'12 0.4
2017-Feb-17 23:29N 33°58' E 131°45'1313.4
2017-Feb-17 22:31N 33°50' E 131°57'1111.1
2017-Feb-17 21:33N 33°49' E 132°10'1413.7
2017-Feb-17 20:33N 33°51' E 132°26'1413.8
2017-Feb-17 19:33N 33°57' E 132°41'110 7.1
2017-Feb-17 04:04N 34°41' E 134°42'1012.7
2017-Feb-17 03:18N 34°37' E 134°53'1013.4
2017-Feb-17 02:33N 34°36' E 135°05'1313.1
2017-Feb-17 01:33N 34°31' E 135°20'3 0.9
2017-Feb-16 22:28N 34°28' E 135°22'2 2.6
2017-Feb-16 21:31N 34°30' E 135°20'0 0.0
2017-Feb-16 20:31N 34°30' E 135°20'0 0.0
2017-Feb-16 19:19N 34°30' E 135°20'0 0.0
2017-Feb-16 15:31N 34°30' E 135°20'0 0.0
2017-Feb-16 14:07N 34°30' E 135°20'0 0.1
2017-Feb-16 13:31N 34°30' E 135°20'0 0.1
2017-Feb-16 12:31N 34°30' E 135°20'0 0.0
2017-Feb-16 11:31N 34°30' E 135°20'6 6.4
2017-Feb-16 10:34N 34°31' E 135°12'1413.4
2017-Feb-16 09:33N 34°36' E 134°57'11112.2
2017-Feb-16 00:28N 34°04' E 132°49'1212.9
2017-Feb-15 23:33N 33°55' E 132°39'1312.5
2017-Feb-15 22:33N 33°51' E 132°25'1312.2
2017-Feb-15 21:29N 33°49' E 132°10'1110.2
2017-Feb-15 20:26N 33°49' E 131°57'  
Track history (hours):
 
Tides and Currents Weather Stations Pressure Air Temp Water Temp Dewpoint Dewpoint Depression Visibility Wind Speed Wind Dir Waves Ship Positions

No1 Tokuyama

Last reported at 2017-Feb-25 07:11 UTC. Time now 2017-Feb-26 03:23 UTC.
Position N 33°19' E 132°00'.

Length 110 m; draft 5.4 m.

Type: Cargo ship. MMSI: 431400487.

Date/timePositionNaut miles runAvg speedWind from/ knotsBaromVisibWave heightAir tempDewpointWater temp
2017-Feb-25 07:11N 33°19' E 132°00'1113.4
2017-Feb-25 06:22N 33°10' E 132°08'38511.7
2017-Feb-23 21:33N 35°00' E 139°33'1413.6
2017-Feb-23 20:33N 35°10' E 139°45'1211.9
2017-Feb-23 19:33N 35°22' E 139°42'1312.7
2017-Feb-23 18:33N 35°30' E 139°54'4 4.0
2017-Feb-23 17:32N 35°27' E 139°58'0 0.0
2017-Feb-23 16:32N 35°27' E 139°58'0 0.0
2017-Feb-23 15:32N 35°27' E 139°58'0 0.0
2017-Feb-23 14:32N 35°27' E 139°58'0 0.0
2017-Feb-23 13:32N 35°27' E 139°58'0 0.0
2017-Feb-23 12:32N 35°27' E 139°58'0 0.0
2017-Feb-23 11:32N 35°27' E 139°58'0 0.0
2017-Feb-23 10:32N 35°27' E 139°58'0 0.0
2017-Feb-23 09:29N 35°27' E 139°58'0 0.0
2017-Feb-23 08:29N 35°27' E 139°58'0 0.0
2017-Feb-23 07:23N 35°27' E 139°58'0 0.0
2017-Feb-23 04:20N 35°27' E 139°58'0 0.0
2017-Feb-22 23:29N 35°27' E 139°58'0 0.0
2017-Feb-22 22:29N 35°27' E 139°58'0 0.0
2017-Feb-22 21:32N 35°27' E 139°58'0 0.0
2017-Feb-22 20:23N 35°27' E 139°58'0 0.0
2017-Feb-22 19:26N 35°27' E 139°58'0 0.0
2017-Feb-22 18:29N 35°27' E 139°58'0 0.0
2017-Feb-22 17:32N 35°27' E 139°58'0 0.0
2017-Feb-22 16:32N 35°27' E 139°58'0 0.0
2017-Feb-22 15:32N 35°27' E 139°58'0 0.0
2017-Feb-22 14:11N 35°27' E 139°58'0 0.0
2017-Feb-22 13:14N 35°27' E 139°58'0 0.0
2017-Feb-22 12:29N 35°27' E 139°58'0 0.0
2017-Feb-22 11:29N 35°27' E 139°58'0 0.0
2017-Feb-22 10:32N 35°27' E 139°58'0 0.0
2017-Feb-22 09:32N 35°27' E 139°58'0 0.0
2017-Feb-22 08:32N 35°27' E 139°58'0 0.0
2017-Feb-22 07:29N 35°27' E 139°58'0 0.0
2017-Feb-22 06:32N 35°27' E 139°58'0 0.0
2017-Feb-22 05:32N 35°27' E 139°58'0 0.0
2017-Feb-22 04:32N 35°27' E 139°58'5 4.8
2017-Feb-22 03:33N 35°29' E 139°52'10 9.5
2017-Feb-22 02:33N 35°26' E 139°41'0 0.0
2017-Feb-22 01:33N 35°26' E 139°41'0 0.0
2017-Feb-22 00:33N 35°26' E 139°41'0 0.0
2017-Feb-21 23:33N 35°26' E 139°41'0 0.0
2017-Feb-21 22:33N 35°26' E 139°41'6 6.0
2017-Feb-21 21:33N 35°20' E 139°43'1010.1
2017-Feb-21 20:33N 35°10' E 139°46'10 9.9
2017-Feb-21 19:33N 35°02' E 139°40'1211.1
2017-Feb-21 18:31N 34°53' E 139°31'23010.5
2017-Feb-20 20:32N 33°59' E 134°60'1212.5
2017-Feb-20 19:33N 34°12' E 134°59'1111.4
2017-Feb-20 18:33N 34°23' E 135°01'1212.0
2017-Feb-20 17:33N 34°29' E 135°14'5 3.5
2017-Feb-20 16:10N 34°30' E 135°19'0 0.1
2017-Feb-20 15:28N 34°30' E 135°19'0 0.0
2017-Feb-20 14:28N 34°30' E 135°19'0 0.0
2017-Feb-20 13:28N 34°30' E 135°19'0 0.0
2017-Feb-20 12:28N 34°30' E 135°19'0 0.1
2017-Feb-20 11:04N 34°30' E 135°19'0 0.0
2017-Feb-20 10:28N 34°30' E 135°19'0 0.0
2017-Feb-20 09:28N 34°30' E 135°19'0 0.0
2017-Feb-20 07:04N 34°30' E 135°19'0 0.0
2017-Feb-20 06:22N 34°30' E 135°19'0 0.1
2017-Feb-20 05:22N 34°30' E 135°19'0 0.1
2017-Feb-20 04:28N 34°30' E 135°19'0 0.0
2017-Feb-20 03:28N 34°30' E 135°19'0 0.0
2017-Feb-20 01:16N 34°30' E 135°19'1 1.9
2017-Feb-20 00:33N 34°30' E 135°18'1111.0
2017-Feb-19 23:32N 34°34' E 135°05'11911.5
2017-Feb-19 13:12N 34°01' E 132°46'812.0
2017-Feb-19 12:33N 33°55' E 132°40'1211.9
2017-Feb-19 11:33N 33°51' E 132°27'2611.2
2017-Feb-19 09:12N 33°50' E 131°55'12 0.4
2017-Feb-17 23:29N 33°58' E 131°45'1313.4
2017-Feb-17 22:31N 33°50' E 131°57'1111.1
2017-Feb-17 21:33N 33°49' E 132°10'1413.7
2017-Feb-17 20:33N 33°51' E 132°26'1413.8
2017-Feb-17 19:33N 33°57' E 132°41'110 7.1
2017-Feb-17 04:04N 34°41' E 134°42'1012.7
2017-Feb-17 03:18N 34°37' E 134°53'1013.4
2017-Feb-17 02:33N 34°36' E 135°05'1313.1
2017-Feb-17 01:33N 34°31' E 135°20'3 0.9
2017-Feb-16 22:28N 34°28' E 135°22'2 2.6
2017-Feb-16 21:31N 34°30' E 135°20'0 0.0
2017-Feb-16 20:31N 34°30' E 135°20'0 0.0
2017-Feb-16 19:19N 34°30' E 135°20'0 0.0
2017-Feb-16 15:31N 34°30' E 135°20'0 0.0
2017-Feb-16 14:07N 34°30' E 135°20'0 0.1
2017-Feb-16 13:31N 34°30' E 135°20'0 0.1
2017-Feb-16 12:31N 34°30' E 135°20'0 0.0
2017-Feb-16 11:31N 34°30' E 135°20'6 6.4
2017-Feb-16 10:34N 34°31' E 135°12'1413.4
2017-Feb-16 09:33N 34°36' E 134°57'11112.2
2017-Feb-16 00:28N 34°04' E 132°49'1212.9
2017-Feb-15 23:33N 33°55' E 132°39'1312.5
2017-Feb-15 22:33N 33°51' E 132°25'1312.2
2017-Feb-15 21:29N 33°49' E 132°10'1110.2
2017-Feb-15 20:26N 33°49' E 131°57'  

Dump ship's entire track history